createdAt,value
2022-10-20T00:01:25.270Z,95530.22
2022-10-20T00:03:56.101Z,95540.56
2022-10-20T00:06:27.745Z,95532.75
2022-10-20T00:08:57.798Z,95536.91
2022-10-20T00:11:26.739Z,95539.34
2022-10-20T00:13:58.215Z,95538.97
2022-10-20T00:16:28.013Z,95535.63
2022-10-20T00:18:57.194Z,95533.47
2022-10-20T00:21:28.888Z,95537.84
2022-10-20T00:23:57.631Z,95543.66
2022-10-20T00:26:27.773Z,95503.59
2022-10-20T00:28:58.579Z,95539.91
2022-10-20T00:31:27.237Z,95535.97
2022-10-20T00:33:55.858Z,95532.09
2022-10-20T00:36:25.038Z,95526.63
2022-10-20T00:38:57.427Z,95514.03
2022-10-20T00:41:25.602Z,95522.53
2022-10-20T00:43:59.278Z,95524.38
2022-10-20T00:46:32.127Z,95526.47
2022-10-20T00:49:04.132Z,95516.75
2022-10-20T00:51:34.865Z,95491.66
2022-10-20T00:54:08.956Z,95484.50
2022-10-20T00:56:40.531Z,95506.53
2022-10-20T00:59:11.344Z,95424.84
2022-10-20T01:01:40.600Z,95507.09
2022-10-20T01:04:09.818Z,95512.19
2022-10-20T01:06:37.891Z,95516.16
2022-10-20T01:09:07.444Z,95521.03
2022-10-20T01:11:44.377Z,95521.03
2022-10-20T01:14:28.000Z,95520.22
2022-10-20T01:17:06.835Z,95516.34
2022-10-20T01:20:04.372Z,95522.53
2022-10-20T01:23:01.065Z,95517.22
2022-10-20T01:25:43.422Z,95520.97
2022-10-20T01:28:24.885Z,95522.72
2022-10-20T01:30:59.865Z,95518.47
2022-10-20T01:33:38.070Z,95494.44
2022-10-20T01:36:14.835Z,95511.69
2022-10-20T01:38:49.674Z,95516.84
2022-10-20T01:41:23.638Z,95515.28
2022-10-20T01:43:55.116Z,95507.13
2022-10-20T01:46:26.561Z,95508.84
2022-10-20T01:48:55.727Z,95512.00
2022-10-20T01:51:23.715Z,95519.09
2022-10-20T01:53:51.674Z,95505.88
2022-10-20T01:56:28.354Z,95526.22
2022-10-20T01:59:29.067Z,95530.25
2022-10-20T02:02:14.671Z,95522.88
2022-10-20T02:04:57.408Z,95531.06
2022-10-20T02:07:29.562Z,95535.97
2022-10-20T02:10:05.192Z,95538.53
2022-10-20T02:12:37.454Z,95541.25
2022-10-20T02:15:08.250Z,95548.50
2022-10-20T02:17:41.131Z,95552.47
2022-10-20T02:20:11.560Z,95513.19
2022-10-20T02:22:43.513Z,95525.00
2022-10-20T02:25:12.608Z,95540.72
2022-10-20T02:27:44.759Z,95543.88
2022-10-20T02:30:16.410Z,95557.03
2022-10-20T02:32:50.526Z,95551.75
2022-10-20T02:35:20.675Z,95561.28
2022-10-20T02:37:50.789Z,95517.94
2022-10-20T02:40:18.939Z,95553.09
2022-10-20T02:42:47.024Z,95564.72
2022-10-20T02:45:15.313Z,95566.09
2022-10-20T02:47:43.731Z,95564.25
2022-10-20T02:50:13.399Z,95560.66
2022-10-20T02:52:41.724Z,95571.25
2022-10-20T02:55:10.255Z,95564.88
2022-10-20T02:57:39.103Z,95576.69
2022-10-20T03:00:09.295Z,95570.78
2022-10-20T03:02:37.263Z,95573.94
2022-10-20T03:05:05.839Z,95573.03
2022-10-20T03:07:35.754Z,95512.75
2022-10-20T03:10:05.720Z,95575.72
2022-10-20T03:12:35.490Z,95575.13
2022-10-20T03:15:03.571Z,95566.41
2022-10-20T03:17:32.022Z,95563.81
2022-10-20T03:20:00.133Z,95583.31
2022-10-20T03:25:03.317Z,95587.53
2022-10-20T03:27:37.208Z,95577.84
2022-10-20T03:30:06.083Z,95561.16
2022-10-20T03:32:34.227Z,95582.00
2022-10-20T03:35:02.873Z,95592.41
2022-10-20T03:37:30.941Z,95588.03
2022-10-20T03:39:58.991Z,95587.41
2022-10-20T03:42:31.665Z,95567.75
2022-10-20T03:44:59.887Z,95571.38
2022-10-20T03:47:27.881Z,95588.00
2022-10-20T03:49:56.406Z,95599.28
2022-10-20T03:52:24.614Z,95598.66
2022-10-20T03:54:52.671Z,95601.34
2022-10-20T03:57:20.974Z,95530.78
2022-10-20T03:59:50.748Z,95590.41
2022-10-20T04:02:33.816Z,95596.94
2022-10-20T04:05:02.462Z,95601.88
2022-10-20T04:07:30.994Z,95604.88
2022-10-20T04:10:02.246Z,95608.50
2022-10-20T04:12:30.458Z,95611.53
2022-10-20T04:15:00.125Z,95625.81
2022-10-20T04:17:28.309Z,95616.28
2022-10-20T04:19:56.677Z,95611.28
2022-10-20T04:22:24.738Z,95615.06
2022-10-20T04:24:52.772Z,95616.13
2022-10-20T04:27:20.969Z,95617.78
2022-10-20T04:29:49.290Z,95618.16
2022-10-20T04:32:22.362Z,95622.97
2022-10-20T04:34:50.291Z,95610.94
2022-10-20T04:37:18.283Z,95594.41
2022-10-20T04:39:46.624Z,95620.69
2022-10-20T04:42:15.640Z,95607.19
2022-10-20T04:44:43.581Z,95618.03
2022-10-20T04:47:11.515Z,95551.50
2022-10-20T04:49:44.141Z,95622.94
2022-10-20T04:52:12.808Z,95622.31
2022-10-20T04:54:40.864Z,95625.94
2022-10-20T04:57:10.766Z,95628.34
2022-10-20T04:59:38.951Z,95634.41
2022-10-20T05:02:07.015Z,95633.78
2022-10-20T05:04:35.413Z,95635.97
2022-10-20T05:07:05.100Z,95642.75
2022-10-20T05:09:33.211Z,95639.13
2022-10-20T05:12:02.872Z,95645.78
2022-10-20T05:14:33.977Z,95644.91
2022-10-20T05:17:04.197Z,95631.91
2022-10-20T05:19:34.928Z,95653.16
2022-10-20T05:22:04.797Z,95655.69
2022-10-20T05:24:33.134Z,95659.94
2022-10-20T05:27:01.696Z,95661.72
2022-10-20T05:29:30.089Z,95670.19
2022-10-20T05:31:58.484Z,95674.31
2022-10-20T05:34:26.874Z,95666.59
2022-10-20T05:36:55.288Z,95670.53
2022-10-20T05:39:26.507Z,95679.31
2022-10-20T05:41:58.291Z,95689.28
2022-10-20T05:44:27.411Z,95683.50
2022-10-20T05:46:56.827Z,95663.38
2022-10-20T05:49:25.249Z,95698.63
2022-10-20T05:51:53.923Z,95720.72
2022-10-20T05:54:22.288Z,95677.50
2022-10-20T05:56:51.888Z,95717.38
2022-10-20T05:59:20.441Z,95732.06
2022-10-20T06:01:49.344Z,95737.63
2022-10-20T06:04:18.921Z,95745.66
2022-10-20T06:06:49.062Z,95709.25
2022-10-20T06:09:18.290Z,95742.22
2022-10-20T06:11:46.671Z,95691.41
2022-10-20T06:14:17.576Z,95753.75
2022-10-20T06:16:46.304Z,95762.50
2022-10-20T06:19:19.613Z,95759.78
2022-10-20T06:21:49.483Z,95751.44
2022-10-20T06:24:19.094Z,95766.44
2022-10-20T06:26:47.954Z,95721.81
2022-10-20T06:29:18.842Z,95773.19
2022-10-20T06:31:48.993Z,95770.94
2022-10-20T06:34:19.415Z,95773.66
2022-10-20T06:36:48.742Z,95745.66
2022-10-20T06:39:19.362Z,95773.06
2022-10-20T06:41:50.930Z,95781.81
2022-10-20T06:44:22.678Z,95772.44
2022-10-20T06:46:52.427Z,95783.03
2022-10-20T06:49:21.783Z,95764.94
2022-10-20T06:51:50.270Z,95784.00
2022-10-20T06:54:18.423Z,95775.84
2022-10-20T06:56:46.969Z,95777.19
2022-10-20T06:59:15.109Z,95782.78
2022-10-20T07:01:44.761Z,95782.84
2022-10-20T07:04:16.132Z,95779.66
2022-10-20T07:06:45.594Z,95775.69
2022-10-20T07:09:16.121Z,95779.50
2022-10-20T07:11:46.858Z,95783.41
2022-10-20T07:14:15.761Z,95787.06
2022-10-20T07:16:47.778Z,95787.09
2022-10-20T07:19:15.879Z,95786.19
2022-10-20T07:21:45.425Z,95740.47
2022-10-20T07:24:14.300Z,95785.88
2022-10-20T07:26:43.643Z,95749.72
2022-10-20T07:29:13.287Z,95783.69
2022-10-20T07:31:46.644Z,95766.44
2022-10-20T07:34:25.691Z,95785.34
2022-10-20T07:36:56.166Z,95788.81
2022-10-20T07:39:26.559Z,95777.28
2022-10-20T07:41:55.170Z,95783.63
2022-10-20T07:44:24.487Z,95750.72
2022-10-20T07:46:54.298Z,95772.84
2022-10-20T07:49:43.342Z,95773.13
2022-10-20T07:52:10.876Z,95781.19
2022-10-20T07:54:42.208Z,95770.91
2022-10-20T07:57:10.139Z,95772.09
2022-10-20T07:59:37.989Z,95776.19
2022-10-20T08:02:07.441Z,95768.13
2022-10-20T08:04:35.724Z,95778.09
2022-10-20T08:07:03.707Z,95763.00
2022-10-20T08:09:33.829Z,95742.69
2022-10-20T08:12:02.888Z,95789.66
2022-10-20T08:14:33.628Z,95786.91
2022-10-20T08:17:02.458Z,95789.81
2022-10-20T08:19:50.785Z,95788.59
2022-10-20T08:22:20.120Z,95781.81
2022-10-20T08:24:50.557Z,95777.03
2022-10-20T08:27:19.654Z,95769.06
2022-10-20T08:29:55.266Z,95763.16
2022-10-20T08:32:37.025Z,95770.81
2022-10-20T08:35:07.735Z,95707.91
2022-10-20T08:37:37.251Z,95769.03
2022-10-20T08:40:06.025Z,95773.50
2022-10-20T08:42:45.143Z,95748.78
2022-10-20T08:45:17.512Z,95749.72
2022-10-20T08:47:48.342Z,95764.44
2022-10-20T08:50:19.610Z,95753.19
2022-10-20T08:52:51.788Z,95739.84
2022-10-20T08:55:27.759Z,95765.84
2022-10-20T08:58:01.535Z,95767.94
2022-10-20T09:00:32.801Z,95764.13
2022-10-20T09:03:12.322Z,95777.00
2022-10-20T09:05:46.157Z,95751.13
2022-10-20T09:08:15.804Z,95760.78
2022-10-20T09:10:48.774Z,95764.38
2022-10-20T09:13:23.717Z,95728.75
2022-10-20T09:15:54.142Z,95765.56
2022-10-20T09:18:22.417Z,95770.78
2022-10-20T09:20:55.395Z,95766.53
2022-10-20T09:23:40.600Z,95768.50
2022-10-20T09:26:30.406Z,95774.06
2022-10-20T09:29:15.810Z,95771.72
2022-10-20T09:31:45.736Z,95777.56
2022-10-20T09:34:24.961Z,95773.78
2022-10-20T09:36:59.552Z,95767.75
2022-10-20T09:39:31.064Z,95766.97
2022-10-20T09:42:05.182Z,95758.50
2022-10-20T09:44:38.130Z,95764.06
2022-10-20T09:47:06.915Z,95766.06
2022-10-20T09:49:37.739Z,95756.53
2022-10-20T09:52:23.788Z,95766.22
2022-10-20T09:54:54.138Z,95761.03
2022-10-20T09:57:23.985Z,95743.81
2022-10-20T09:59:54.767Z,95762.75
2022-10-20T10:02:32.376Z,95767.56
2022-10-20T10:05:21.252Z,95721.19
2022-10-20T10:08:01.389Z,95731.72
2022-10-20T10:10:32.309Z,95757.19
2022-10-20T10:15:42.186Z,95742.50
2022-10-20T10:18:15.701Z,95742.13
2022-10-20T10:20:44.185Z,95740.03
2022-10-20T10:23:22.273Z,95683.75
2022-10-20T10:25:51.827Z,95732.38
2022-10-20T10:28:29.115Z,95735.41
2022-10-20T10:31:09.989Z,95695.28
2022-10-20T10:33:38.215Z,95733.50
2022-10-20T10:36:12.992Z,95738.34
2022-10-20T10:38:43.650Z,95734.91
2022-10-20T10:41:23.250Z,95727.72
2022-10-20T10:43:59.819Z,95701.16
2022-10-20T10:46:37.894Z,95706.19
2022-10-20T10:49:33.973Z,95714.34
2022-10-20T10:52:18.738Z,95715.69
2022-10-20T10:55:03.191Z,95724.59
2022-10-20T10:57:36.902Z,95722.50
2022-10-20T11:00:16.589Z,95718.31
2022-10-20T11:03:17.883Z,95717.75
2022-10-20T11:06:04.451Z,95663.06
2022-10-20T11:08:44.573Z,95706.88
2022-10-20T11:11:26.694Z,95703.78
2022-10-20T11:14:09.701Z,95694.88
2022-10-20T11:16:43.211Z,95707.22
2022-10-20T11:19:41.276Z,95700.63
2022-10-20T11:22:24.096Z,95693.66
2022-10-20T11:24:59.314Z,95684.47
2022-10-20T11:27:32.386Z,95646.72
2022-10-20T11:30:08.730Z,95678.72
2022-10-20T11:32:42.916Z,95670.38
2022-10-20T11:35:22.656Z,95679.94
2022-10-20T11:37:56.879Z,95678.56
2022-10-20T11:40:28.409Z,95679.25
2022-10-20T11:43:11.054Z,95664.53
2022-10-20T11:45:44.469Z,95601.50
2022-10-20T11:48:19.661Z,95654.63
2022-10-20T11:50:54.990Z,95658.50
2022-10-20T11:53:52.152Z,95657.16
2022-10-20T11:56:48.126Z,95656.31
2022-10-20T11:59:33.590Z,95647.94
2022-10-20T12:02:25.107Z,95641.75
2022-10-20T12:05:27.937Z,95649.97
2022-10-20T12:08:28.755Z,95653.84
2022-10-20T12:11:04.989Z,95652.44
2022-10-20T12:13:41.036Z,95656.53
2022-10-20T12:16:10.538Z,95651.53
2022-10-20T12:18:39.320Z,95649.84
2022-10-20T12:21:11.413Z,95641.94
2022-10-20T12:24:07.444Z,95645.44
2022-10-20T12:27:17.902Z,95655.59
2022-10-20T12:29:53.551Z,95651.34
2022-10-20T12:32:44.730Z,95632.09
2022-10-20T12:35:54.000Z,95630.34
2022-10-20T12:38:23.773Z,95641.00
2022-10-20T12:40:58.021Z,95643.50
2022-10-20T12:43:33.420Z,95635.34
2022-10-20T12:46:09.049Z,95640.19
2022-10-20T12:48:45.945Z,95609.91
2022-10-20T12:51:24.888Z,95646.66
2022-10-20T12:53:57.475Z,95634.28
2022-10-20T12:56:29.726Z,95644.28
2022-10-20T12:59:22.849Z,95643.53
2022-10-20T13:02:39.784Z,95642.09
2022-10-20T13:05:29.375Z,95645.66
2022-10-20T13:08:19.217Z,95643.25
2022-10-20T13:10:48.675Z,95651.56
2022-10-20T13:13:44.658Z,95639.69
2022-10-20T13:16:26.205Z,95657.47
2022-10-20T13:18:55.191Z,95648.94
2022-10-20T13:21:35.929Z,95592.53
2022-10-20T13:24:11.085Z,95646.41
2022-10-20T13:26:46.601Z,95633.38
2022-10-20T13:29:21.039Z,95642.69
2022-10-20T13:32:03.081Z,95638.88
2022-10-20T13:34:40.186Z,95646.75
2022-10-20T13:37:57.269Z,95641.44
2022-10-20T13:40:37.412Z,95643.44
2022-10-20T13:43:29.590Z,95630.38
2022-10-20T13:46:24.524Z,95640.19
2022-10-20T13:49:07.344Z,95640.31
2022-10-20T13:51:42.271Z,95646.59
2022-10-20T13:54:24.488Z,95640.88
2022-10-20T13:56:55.001Z,95601.84
2022-10-20T13:59:25.859Z,95648.09
2022-10-20T14:01:56.318Z,95641.69
2022-10-20T14:04:32.176Z,95644.16
2022-10-20T14:07:04.462Z,95649.44
2022-10-20T14:09:32.719Z,95645.34
2022-10-20T14:12:05.996Z,95653.00
2022-10-20T14:14:35.467Z,95649.41
2022-10-20T14:17:05.909Z,95639.28
2022-10-20T14:19:35.443Z,95632.44
2022-10-20T14:22:14.598Z,95634.28
2022-10-20T14:24:45.531Z,95650.47
2022-10-20T14:27:20.682Z,95644.47
2022-10-20T14:29:50.185Z,95641.56
2022-10-20T14:32:21.106Z,95602.38
2022-10-20T14:34:57.887Z,95655.78
2022-10-20T14:37:31.689Z,95643.31
2022-10-20T14:40:02.282Z,95647.91
2022-10-20T14:42:34.502Z,95639.97
2022-10-20T14:45:05.457Z,95644.06
2022-10-20T14:47:39.760Z,95638.31
2022-10-20T14:50:20.942Z,95648.31
2022-10-20T14:52:53.705Z,95653.47
2022-10-20T14:55:33.617Z,95650.81
2022-10-20T14:58:03.600Z,95636.28
2022-10-20T15:00:35.399Z,95651.00
2022-10-20T15:03:07.400Z,95653.34
2022-10-20T15:05:39.911Z,95631.91
2022-10-20T15:08:18.551Z,95659.03
2022-10-20T15:10:50.274Z,95653.16
2022-10-20T15:13:52.973Z,95658.50
2022-10-20T15:16:36.955Z,95665.06
2022-10-20T15:19:31.878Z,95661.50
2022-10-20T15:24:41.993Z,95615.34
2022-10-20T15:27:16.186Z,95670.22
2022-10-20T15:29:50.989Z,95671.59
2022-10-20T15:32:19.470Z,95669.38
2022-10-20T15:34:47.762Z,95670.91
2022-10-20T15:37:15.874Z,95674.09
2022-10-20T15:39:44.918Z,95674.47
2022-10-20T15:42:14.579Z,95683.69
2022-10-20T15:44:42.623Z,95650.56
2022-10-20T15:47:12.005Z,95620.50
2022-10-20T15:49:40.052Z,95673.94
2022-10-20T15:52:09.661Z,95695.47
2022-10-20T15:54:37.960Z,95690.69
2022-10-20T15:57:06.249Z,95696.97
2022-10-20T15:59:37.287Z,95696.78
2022-10-20T16:02:08.067Z,95705.97
2022-10-20T16:04:37.872Z,95703.91
2022-10-20T16:07:05.798Z,95684.09
2022-10-20T16:09:35.042Z,95704.47
2022-10-20T16:12:03.213Z,95720.63
2022-10-20T16:14:31.202Z,95705.34
2022-10-20T16:17:02.208Z,95717.94
2022-10-20T16:19:31.799Z,95728.97
2022-10-20T16:22:01.523Z,95727.06
2022-10-20T16:24:29.782Z,95736.72
2022-10-20T16:26:57.853Z,95739.34
2022-10-20T16:29:28.042Z,95737.72
2022-10-20T16:31:58.491Z,95735.00
2022-10-20T16:34:29.059Z,95737.56
2022-10-20T16:36:57.900Z,95748.63
2022-10-20T16:39:27.940Z,95745.00
2022-10-20T16:41:56.329Z,95750.44
2022-10-20T16:44:25.034Z,95747.06
2022-10-20T16:46:53.023Z,95760.88
2022-10-20T16:49:25.837Z,95742.94
2022-10-20T16:51:54.086Z,95759.63
2022-10-20T16:54:22.076Z,95761.78
2022-10-20T16:56:51.856Z,95757.88
2022-10-20T16:59:23.028Z,95754.84
2022-10-20T17:01:51.043Z,95762.72
2022-10-20T17:04:19.440Z,95760.28
2022-10-20T17:06:47.926Z,95776.81
2022-10-20T17:09:16.622Z,95764.88
2022-10-20T17:11:44.988Z,95767.28
2022-10-20T17:14:16.239Z,95771.84
2022-10-20T17:16:44.368Z,95774.56
2022-10-20T17:19:13.036Z,95781.56
2022-10-20T17:21:41.517Z,95782.16
2022-10-20T17:24:12.516Z,95781.41
2022-10-20T17:26:42.227Z,95786.69
2022-10-20T17:29:10.953Z,95782.78
2022-10-20T17:31:40.535Z,95791.00
2022-10-20T17:34:08.633Z,95770.41
2022-10-20T17:36:36.757Z,95787.34
2022-10-20T17:39:09.528Z,95783.72
2022-10-20T17:41:37.449Z,95776.78
2022-10-20T17:44:07.853Z,95782.19
2022-10-20T17:46:40.363Z,95792.03
2022-10-20T17:49:10.310Z,95801.59
2022-10-20T17:51:38.978Z,95765.00
2022-10-20T17:54:07.234Z,95793.88
2022-10-20T17:56:38.351Z,95794.78
2022-10-20T17:59:08.111Z,95785.56
2022-10-20T18:01:38.423Z,95795.69
2022-10-20T18:04:11.292Z,95792.22
2022-10-20T18:06:40.470Z,95794.94
2022-10-20T18:09:12.008Z,95795.56
2022-10-20T18:11:42.558Z,95784.22
2022-10-20T18:14:10.634Z,95804.00
2022-10-20T18:16:40.719Z,95729.25
2022-10-20T18:19:16.451Z,95805.69
2022-10-20T18:21:45.192Z,95805.53
2022-10-20T18:24:15.505Z,95796.75
2022-10-20T18:26:45.407Z,95789.75
2022-10-20T18:29:14.500Z,95805.19
2022-10-20T18:31:45.909Z,95811.78
2022-10-20T18:34:20.663Z,95816.28
2022-10-20T18:36:49.780Z,95811.91
2022-10-20T18:39:19.948Z,95816.28
2022-10-20T18:41:52.612Z,95802.09
2022-10-20T18:44:22.130Z,95814.56
2022-10-20T18:46:51.258Z,95815.00
2022-10-20T18:49:21.763Z,95812.84
2022-10-20T18:51:50.217Z,95821.94
2022-10-20T18:54:20.012Z,95823.53
2022-10-20T18:56:48.100Z,95822.16
2022-10-20T18:59:18.055Z,95816.16
2022-10-20T19:01:48.441Z,95817.31
2022-10-20T19:04:17.049Z,95823.59
2022-10-20T19:06:48.765Z,95827.69
2022-10-20T19:09:19.990Z,95827.13
2022-10-20T19:11:51.537Z,95838.72
2022-10-20T19:14:19.632Z,95827.88
2022-10-20T19:16:49.879Z,95843.22
2022-10-20T19:19:20.109Z,95800.16
2022-10-20T19:21:50.370Z,95827.06
2022-10-20T19:24:27.441Z,95841.34
2022-10-20T19:27:24.673Z,95834.66
2022-10-20T19:29:46.465Z,95851.44
2022-10-20T19:32:14.495Z,95846.38
2022-10-20T19:34:43.273Z,95856.13
2022-10-20T19:37:13.860Z,95853.91
2022-10-20T19:39:44.317Z,95858.47
2022-10-20T19:42:13.938Z,95857.72
2022-10-20T19:44:42.257Z,95863.53
2022-10-20T19:47:10.529Z,95843.91
2022-10-20T19:49:38.786Z,95866.00
2022-10-20T19:52:09.209Z,95859.03
2022-10-20T19:54:38.986Z,95875.84
2022-10-20T19:57:08.408Z,95882.25
2022-10-20T19:59:36.984Z,95884.63
2022-10-20T20:02:05.572Z,95880.06
2022-10-20T20:04:35.485Z,95885.19
2022-10-20T20:07:04.214Z,95887.56
2022-10-20T20:09:32.749Z,95884.75
2022-10-20T20:12:03.986Z,95880.16
2022-10-20T20:14:32.059Z,95882.00
2022-10-20T20:17:00.222Z,95881.78
2022-10-20T20:19:28.709Z,95875.19
2022-10-20T20:21:56.712Z,95883.44
2022-10-20T20:24:25.565Z,95870.66
2022-10-20T20:26:53.551Z,95882.16
2022-10-20T20:29:24.054Z,95873.28
2022-10-20T20:31:52.421Z,95874.53
2022-10-20T20:34:20.754Z,95884.03
2022-10-20T20:36:48.964Z,95888.00
2022-10-20T20:39:17.138Z,95872.41
2022-10-20T20:41:45.558Z,95890.97
2022-10-20T20:44:14.065Z,95891.22
2022-10-20T20:46:43.898Z,95891.09
2022-10-20T20:49:12.120Z,95893.94
2022-10-20T20:51:40.690Z,95898.22
2022-10-20T20:54:10.369Z,95898.63
2022-10-20T20:56:39.431Z,95897.16
2022-10-20T20:59:07.925Z,95901.91
2022-10-20T21:01:37.728Z,95859.16
2022-10-20T21:04:11.634Z,95887.03
2022-10-20T21:07:01.238Z,95893.03
2022-10-20T21:09:29.475Z,95894.50
2022-10-20T21:11:57.802Z,95890.34
2022-10-20T21:14:26.092Z,95895.59
2022-10-20T21:16:54.290Z,95900.84
2022-10-20T21:19:24.405Z,95898.50
2022-10-20T21:21:58.110Z,95903.06
2022-10-20T21:24:27.304Z,95905.41
2022-10-20T21:26:55.939Z,95911.50
2022-10-20T21:29:24.258Z,95910.00
2022-10-20T21:31:52.519Z,95905.25
2022-10-20T21:34:20.539Z,95889.38
2022-10-20T21:36:50.343Z,95856.16
2022-10-20T21:39:18.836Z,95901.00
2022-10-20T21:41:47.406Z,95879.72
2022-10-20T21:44:16.246Z,95908.63
2022-10-20T21:46:47.766Z,95921.72
2022-10-20T21:49:18.523Z,95903.38
2022-10-20T21:51:48.086Z,95846.94
2022-10-20T21:54:19.052Z,95918.56
2022-10-20T21:56:48.468Z,95917.38
2022-10-20T21:59:19.493Z,95921.69
2022-10-20T22:01:49.074Z,95938.16
2022-10-20T22:04:18.286Z,95921.44
2022-10-20T22:06:48.443Z,95934.72
2022-10-20T22:09:18.352Z,95934.88
2022-10-20T22:11:50.866Z,95925.91
2022-10-20T22:14:19.161Z,95943.22
2022-10-20T22:16:47.237Z,95943.56
2022-10-20T22:19:17.552Z,95954.06
2022-10-20T22:21:47.819Z,95951.31
2022-10-20T22:24:18.888Z,95942.09
2022-10-20T22:26:47.958Z,95901.34
2022-10-20T22:29:16.957Z,95956.00
2022-10-20T22:31:46.594Z,95954.84
2022-10-20T22:34:15.489Z,95956.91
2022-10-20T22:36:45.835Z,95955.91
2022-10-20T22:39:14.656Z,95955.84
2022-10-20T22:41:44.772Z,95967.25
2022-10-20T22:44:14.214Z,95966.50
2022-10-20T22:46:42.470Z,95955.19
2022-10-20T22:49:10.796Z,95965.31
2022-10-20T22:51:39.337Z,95963.28
2022-10-20T22:54:08.311Z,95970.97
2022-10-20T22:56:36.812Z,95961.25
2022-10-20T22:59:06.277Z,95960.53
2022-10-20T23:01:34.425Z,95964.66
2022-10-20T23:04:02.832Z,95963.03
2022-10-20T23:06:30.917Z,95965.88
2022-10-20T23:08:59.039Z,95962.56
2022-10-20T23:11:27.249Z,95963.72
2022-10-20T23:13:58.805Z,95966.19
2022-10-20T23:16:28.503Z,95968.88
2022-10-20T23:18:57.201Z,95966.22
2022-10-20T23:21:25.486Z,95968.94
2022-10-20T23:23:54.511Z,95957.31
2022-10-20T23:26:22.760Z,95964.06
2022-10-20T23:28:51.080Z,95964.13
2022-10-20T23:31:40.154Z,95947.53
2022-10-20T23:34:10.940Z,95969.06
2022-10-20T23:36:39.266Z,95966.00
2022-10-20T23:39:07.850Z,95939.25
2022-10-20T23:41:35.898Z,95973.56
2022-10-20T23:44:04.017Z,95983.59
2022-10-20T23:46:33.613Z,95975.59
2022-10-20T23:49:05.935Z,95913.78
2022-10-20T23:51:35.697Z,95971.66
2022-10-20T23:54:04.758Z,95973.59
2022-10-20T23:56:33.530Z,95936.97
2022-10-20T23:59:01.923Z,95970.56
